Time;durP1;ratioP1;P1;durP2;ratioP2;P2;SDS_P1;SDS_P2;PMS_P1;PMS_P2;Temp;Humidity;BMP_temperature;BMP_pressure;BME280_temperature;BME280_humidity;BME280_pressure;Samples;Min_cycle;Max_cycle;Signal;HPM_P1;HPM_P2
2023/03/19 00:01:49;;;;;;;9.57;6.50;;;;;;;19.31;57.01;101086.50;5048555;28;20029;-65
2023/03/19 00:04:16;;;;;;;12.03;6.73;;;;;;;19.41;56.14;101087.84;5049013;28;20495;-65
2023/03/19 00:06:41;;;;;;;10.13;6.63;;;;;;;18.97;59.27;101090.56;5049706;28;20119;-65
2023/03/19 00:09:07;;;;;;;10.93;7.00;;;;;;;18.77;59.97;101092.22;5047588;28;20107;-65
2023/03/19 00:11:33;;;;;;;12.60;6.87;;;;;;;18.55;60.20;101097.50;5050430;28;20029;-65
2023/03/19 00:13:58;;;;;;;12.57;7.83;;;;;;;18.56;59.62;101098.34;5050242;28;20469;-65
2023/03/19 00:16:23;;;;;;;11.47;8.63;;;;;;;18.76;60.29;101095.78;5049255;28;20032;-65
2023/03/19 00:18:49;;;;;;;14.10;9.77;;;;;;;18.50;59.76;101109.19;5048713;28;20028;-65
2023/03/19 00:21:14;;;;;;;19.33;11.37;;;;;;;18.71;60.45;101108.38;5050064;28;20395;-65
2023/03/19 00:23:40;;;;;;;24.77;12.80;;;;;;;18.90;58.69;101113.78;5049764;28;20025;-65
2023/03/19 00:26:05;;;;;;;22.80;13.53;;;;;;;19.28;56.18;101108.69;5048291;28;20316;-65
2023/03/19 00:28:31;;;;;;;17.83;11.37;;;;;;;18.95;57.45;101110.97;5049021;28;20111;-65
2023/03/19 00:30:57;;;;;;;22.10;12.77;;;;;;;19.36;55.72;101103.09;5047877;28;20025;-65
2023/03/19 00:33:22;;;;;;;15.30;10.67;;;;;;;19.42;55.47;101110.75;5048482;28;20171;-65
2023/03/19 00:35:47;;;;;;;14.10;10.17;;;;;;;19.01;56.38;101105.41;5049794;28;20025;-65
2023/03/19 00:38:13;;;;;;;13.17;9.90;;;;;;;18.91;57.32;101104.06;5047577;28;20025;-65
2023/03/19 00:40:38;;;;;;;15.57;10.83;;;;;;;19.38;55.52;101109.16;5048826;28;20820;-65
2023/03/19 00:43:04;;;;;;;16.43;10.77;;;;;;;19.10;56.53;101110.34;5047828;28;20036;-65
2023/03/19 00:45:29;;;;;;;16.53;10.80;;;;;;;18.85;57.36;101120.16;5049413;28;20098;-65
2023/03/19 00:47:56;;;;;;;17.13;11.17;;;;;;;19.31;56.07;101108.56;5047932;28;20440;-65
2023/03/19 00:50:23;;;;;;;15.40;10.97;;;;;;;18.59;57.49;101130.88;5048036;28;20075;-65
2023/03/19 00:52:50;;;;;;;17.63;11.70;;;;;;;18.70;58.49;101125.16;5047330;28;20043;-65
2023/03/19 00:55:15;;;;;;;17.23;12.20;;;;;;;19.21;55.58;101119.63;5047906;28;20033;-65
2023/03/19 00:57:40;;;;;;;17.47;11.13;;;;;;;18.58;57.97;101123.84;5049436;28;20397;-65
2023/03/19 01:00:07;;;;;;;17.07;11.07;;;;;;;18.07;59.13;101133.69;5048380;28;20499;-66
2023/03/19 01:02:33;;;;;;;17.43;12.20;;;;;;;18.72;55.99;101125.94;5047492;28;20049;-65
2023/03/19 01:04:58;;;;;;;22.63;12.53;;;;;;;18.00;60.11;101121.63;5048972;28;20032;-65
2023/03/19 01:07:23;;;;;;;18.23;12.23;;;;;;;18.84;56.72;101121.97;5047689;28;20035;-65
2023/03/19 01:09:49;;;;;;;17.33;11.87;;;;;;;18.46;56.91;101124.31;5047716;28;20029;-65
2023/03/19 01:12:14;;;;;;;18.97;12.27;;;;;;;17.91;60.84;101129.84;5048419;28;20036;-65
2023/03/19 01:14:40;;;;;;;18.57;13.03;;;;;;;18.62;57.94;101120.16;5049443;28;20074;-65
2023/03/19 01:17:05;;;;;;;21.23;13.53;;;;;;;18.09;60.43;101131.00;5048610;28;20082;-65
2023/03/19 01:19:31;;;;;;;20.33;13.13;;;;;;;17.46;63.39;101123.47;5047236;28;20115;-65
2023/03/19 01:21:56;;;;;;;22.23;13.20;;;;;;;17.99;59.59;101130.47;5049415;28;20075;-65
2023/03/19 01:24:22;;;;;;;23.43;14.30;;;;;;;18.29;60.59;101128.47;5047681;28;20306;-64
2023/03/19 01:26:47;;;;;;;19.17;13.63;;;;;;;18.19;58.86;101126.22;5063373;28;20071;-64
2023/03/19 01:29:12;;;;;;;20.00;13.87;;;;;;;18.91;57.60;101117.31;5048740;28;20032;-64
2023/03/19 01:31:38;;;;;;;20.07;12.97;;;;;;;19.24;55.85;101127.44;5047708;28;20068;-64
2023/03/19 01:34:03;;;;;;;17.07;12.00;;;;;;;18.37;58.22;101133.47;5046362;28;20021;-64
2023/03/19 01:36:29;;;;;;;18.90;12.70;;;;;;;19.08;57.14;101128.09;5048995;28;20107;-64
2023/03/19 01:38:55;;;;;;;20.07;13.13;;;;;;;18.53;58.45;101135.53;5048688;28;20037;-64
2023/03/19 01:41:22;;;;;;;16.60;12.10;;;;;;;18.22;57.47;101134.06;5046679;28;20055;-64
2023/03/19 01:43:47;;;;;;;13.47;10.13;;;;;;;17.58;59.15;101124.84;5047481;28;20028;-64
2023/03/19 01:46:35;;;;;;;16.27;9.37;;;;;;;16.85;63.84;101128.97;5048446;28;20587;-64
2023/03/19 01:49:05;;;;;;;13.73;9.20;;;;;;;16.86;62.60;101136.00;5046852;28;20063;-64
2023/03/19 01:51:40;;;;;;;11.90;8.43;;;;;;;17.15;63.27;101131.59;5047902;28;20124;-64
2023/03/19 01:54:10;;;;;;;13.63;9.43;;;;;;;16.97;61.68;101128.63;5046094;28;20021;-64
2023/03/19 01:56:38;;;;;;;12.00;8.77;;;;;;;18.08;57.31;101135.44;5049112;28;20036;-64
2023/03/19 01:59:27;;;;;;;14.20;9.23;;;;;;;17.62;58.76;101137.03;5046675;28;20032;-64
2023/03/19 02:02:05;;;;;;;13.30;9.03;;;;;;;18.11;55.99;101135.31;5046210;28;20059;-65
2023/03/19 02:04:32;;;;;;;12.43;8.77;;;;;;;18.24;54.51;101129.56;5048824;28;20491;-64
2023/03/19 02:07:01;;;;;;;13.03;8.90;;;;;;;16.58;62.11;101137.69;5048305;28;20033;-65
2023/03/19 02:09:28;;;;;;;15.67;9.23;;;;;;;17.93;56.51;101122.78;5047504;28;20097;-64
2023/03/19 02:11:55;;;;;;;14.43;9.00;;;;;;;18.01;54.83;101128.66;5047139;28;20373;-64
2023/03/19 02:14:21;;;;;;;14.50;10.07;;;;;;;17.33;58.53;101128.31;5050009;28;20070;-64
2023/03/19 02:16:46;;;;;;;15.20;9.37;;;;;;;17.13;58.94;101143.06;5050639;28;20121;-64
2023/03/19 02:19:25;;;;;;;14.33;9.63;;;;;;;17.74;57.35;101139.25;5052279;28;20044;-65
2023/03/19 02:21:52;;;;;;;17.30;10.17;;;;;;;17.50;59.30;101140.94;5052566;28;20481;-65
2023/03/19 02:24:31;;;;;;;15.43;9.70;;;;;;;17.92;56.16;101139.56;5051506;28;20038;-65
2023/03/19 02:26:57;;;;;;;16.43;9.83;;;;;;;18.25;57.04;101137.44;5052311;28;20052;-66
2023/03/19 02:29:22;;;;;;;13.63;9.80;;;;;;;17.98;56.11;101144.59;5051334;28;20326;-66
2023/03/19 02:31:48;;;;;;;14.33;10.73;;;;;;;18.40;55.53;101141.28;5050882;28;20032;-66
2023/03/19 02:34:20;;;;;;;14.37;10.87;;;;;;;17.35;59.15;101146.75;5050667;28;20528;-65
2023/03/19 02:36:57;;;;;;;18.90;11.25;;;;;;;17.16;59.72;101149.13;5050302;28;20064;-65
2023/03/19 02:39:40;;;;;;;18.37;11.17;;;;;;;17.73;58.95;101148.09;5050608;28;20299;-66
2023/03/19 02:42:07;;;;;;;17.60;10.77;;;;;;;18.28;57.17;101147.06;5050373;28;20252;-65
2023/03/19 02:44:33;;;;;;;17.47;11.23;;;;;;;17.86;58.01;101145.00;5050337;28;20040;-65
2023/03/19 02:46:58;;;;;;;20.83;12.13;;;;;;;18.19;55.46;101139.44;5050414;28;20048;-65
2023/03/19 02:49:23;;;;;;;17.53;12.17;;;;;;;16.81;62.45;101148.47;5067020;28;20027;-65
2023/03/19 02:51:50;;;;;;;19.93;12.83;;;;;;;16.61;62.99;101149.94;5049738;28;20031;-66
2023/03/19 02:54:15;;;;;;;18.17;12.60;;;;;;;17.27;62.77;101149.66;5050169;28;20477;-65
2023/03/19 02:56:41;;;;;;;20.87;12.00;;;;;;;16.98;60.81;101147.94;5052246;28;20147;-65
2023/03/19 02:59:06;;;;;;;19.37;12.73;;;;;;;17.91;58.40;101153.66;5049108;28;20024;-66
2023/03/19 03:01:32;;;;;;;20.47;12.87;;;;;;;17.94;57.07;101148.28;5050797;28;20125;-65
2023/03/19 03:03:57;;;;;;;17.73;11.60;;;;;;;18.23;55.79;101149.00;5050109;28;20039;-65
2023/03/19 03:06:23;;;;;;;18.07;12.00;;;;;;;16.77;60.83;101152.97;5049115;28;20062;-65
2023/03/19 03:08:48;;;;;;;16.47;11.63;;;;;;;17.11;58.78;101147.50;5051390;28;20381;-65
2023/03/19 03:11:14;;;;;;;20.17;11.20;;;;;;;16.90;58.89;101149.06;5050026;28;20025;-65
2023/03/19 03:13:39;;;;;;;20.60;12.57;;;;;;;16.82;59.89;101150.19;5049640;28;20028;-65
2023/03/19 03:16:05;;;;;;;17.77;12.17;;;;;;;17.19;58.97;101135.84;5050916;28;20419;-64
2023/03/19 03:18:31;;;;;;;20.03;12.70;;;;;;;17.36;57.15;101138.78;5049611;28;20017;-65
2023/03/19 03:20:56;;;;;;;19.30;11.27;;;;;;;17.72;55.86;101141.09;5049827;28;20021;-65
2023/03/19 03:23:22;;;;;;;19.43;12.57;;;;;;;17.28;57.67;101146.09;5050017;28;20543;-65
2023/03/19 03:25:49;;;;;;;16.80;13.00;;;;;;;17.65;56.38;101147.50;5048154;28;20029;-65
2023/03/19 03:28:15;;;;;;;19.20;12.73;;;;;;;16.61;58.46;101157.88;5051015;28;20035;-65
2023/03/19 03:30:40;;;;;;;18.23;11.80;;;;;;;16.56;60.82;101155.34;5050032;28;20017;-65
2023/03/19 03:33:06;;;;;;;20.07;12.37;;;;;;;17.33;57.92;101156.53;5048406;28;20013;-65
2023/03/19 03:35:31;;;;;;;17.83;11.93;;;;;;;17.24;57.60;101145.34;5049696;28;20032;-65
2023/03/19 03:37:57;;;;;;;16.37;12.37;;;;;;;17.71;55.12;101142.00;5050905;28;20036;-65
2023/03/19 03:40:23;;;;;;;18.50;12.70;;;;;;;17.94;55.28;101148.28;5050066;28;20780;-65
2023/03/19 03:42:49;;;;;;;18.23;12.43;;;;;;;18.03;54.19;101147.94;5049402;28;20017;-65
2023/03/19 03:45:15;;;;;;;21.30;12.93;;;;;;;17.70;55.40;101140.28;5049280;28;20024;-65
2023/03/19 03:47:41;;;;;;;19.07;12.90;;;;;;;17.08;57.56;101146.75;5048952;28;20045;-65
2023/03/19 03:50:09;;;;;;;20.13;13.80;;;;;;;16.60;59.30;101145.56;5048802;28;20115;-65
2023/03/19 03:52:35;;;;;;;23.97;15.13;;;;;;;16.78;58.98;101145.00;5049435;28;20155;-65
2023/03/19 03:55:05;;;;;;;23.93;15.37;;;;;;;17.97;54.48;101148.19;5049846;28;20025;-65
2023/03/19 03:57:30;;;;;;;24.93;15.37;;;;;;;18.15;53.34;101144.00;5051111;28;20063;-65
2023/03/19 03:59:55;;;;;;;29.97;17.03;;;;;;;16.89;58.40;101155.25;5050457;28;20056;-65
2023/03/19 04:02:21;;;;;;;24.70;17.63;;;;;;;16.82;59.34;101156.34;5048489;28;20024;-65
2023/03/19 04:04:47;;;;;;;29.87;18.17;;;;;;;16.79;59.19;101159.06;5048988;28;20032;-65
2023/03/19 04:07:13;;;;;;;27.50;18.03;;;;;;;15.26;65.49;101157.94;5050436;28;20033;-65
2023/03/19 04:09:38;;;;;;;31.63;19.53;;;;;;;16.10;61.63;101157.53;5048612;28;20021;-65
2023/03/19 04:12:04;;;;;;;30.07;19.00;;;;;;;16.29;60.46;101162.28;5048378;28;20056;-64
2023/03/19 04:14:29;;;;;;;31.17;18.67;;;;;;;16.55;60.86;101155.38;5049309;28;20106;-65
2023/03/19 04:16:55;;;;;;;30.43;19.40;;;;;;;16.34;61.21;101155.13;5049703;28;20021;-65
2023/03/19 04:19:20;;;;;;;27.63;18.30;;;;;;;16.50;60.23;101159.94;5048815;28;20501;-65
2023/03/19 04:21:46;;;;;;;31.37;18.60;;;;;;;16.95;57.98;101162.13;5049398;28;20572;-65
2023/03/19 04:24:13;;;;;;;30.83;20.37;;;;;;;16.87;56.88;101164.09;5048571;28;20086;-65
2023/03/19 04:26:39;;;;;;;31.10;19.10;;;;;;;16.59;57.54;101165.78;5048861;28;20100;-65
2023/03/19 04:29:05;;;;;;;33.13;19.73;;;;;;;15.93;62.89;101165.03;5047441;28;20020;-64
2023/03/19 04:31:30;;;;;;;33.50;19.43;;;;;;;15.81;61.70;101165.38;5048825;28;20526;-64
2023/03/19 04:33:56;;;;;;;29.07;20.10;;;;;;;16.91;59.23;101161.38;5065060;28;20107;-65
2023/03/19 04:36:21;;;;;;;32.17;18.73;;;;;;;16.62;58.93;101160.44;5047495;28;20396;-65
2023/03/19 04:38:47;;;;;;;33.33;19.50;;;;;;;17.33;55.45;101167.94;5049764;28;20031;-65
2023/03/19 04:41:14;;;;;;;30.63;19.07;;;;;;;16.95;56.20;101172.69;5049746;28;20405;-65
2023/03/19 04:43:40;;;;;;;35.87;20.07;;;;;;;16.55;59.09;101181.78;5047918;28;20025;-65
2023/03/19 04:46:06;;;;;;;36.27;22.20;;;;;;;16.54;59.43;101182.69;5049256;28;20055;-67
2023/03/19 04:48:34;;;;;;;38.77;22.20;;;;;;;16.65;58.02;101185.88;5048446;28;20130;-65
2023/03/19 04:51:01;;;;;;;30.17;19.23;;;;;;;16.52;59.43;101189.78;5064239;28;20021;-65
2023/03/19 04:53:27;;;;;;;33.97;20.70;;;;;;;16.76;58.59;101191.69;5048195;28;20582;-65
2023/03/19 04:55:53;;;;;;;34.87;21.87;;;;;;;16.47;59.46;101191.69;5048096;28;20025;-65
2023/03/19 04:58:18;;;;;;;34.07;21.70;;;;;;;16.27;60.43;101198.41;5047250;28;20472;-65
2023/03/19 05:00:46;;;;;;;36.20;21.47;;;;;;;16.17;60.52;101196.91;5048202;28;20032;-65
2023/03/19 05:03:12;;;;;;;36.03;22.00;;;;;;;15.90;61.65;101196.78;5064314;28;20440;-65
2023/03/19 05:05:38;;;;;;;37.30;22.07;;;;;;;16.68;59.23;101196.34;5048808;28;20052;-65
2023/03/19 05:08:03;;;;;;;42.77;23.10;;;;;;;16.71;58.84;101206.81;5047433;28;20052;-65
2023/03/19 05:10:29;;;;;;;36.63;22.40;;;;;;;16.83;58.42;101204.69;5049389;28;20538;-65
2023/03/19 05:12:54;;;;;;;36.97;22.33;;;;;;;16.84;56.92;101195.88;5048198;28;20045;-65
2023/03/19 05:15:19;;;;;;;35.83;22.60;;;;;;;16.59;58.63;101205.38;5047707;28;20032;-65
2023/03/19 05:17:45;;;;;;;36.20;21.70;;;;;;;17.06;56.95;101211.94;5048093;28;20035;-65
2023/03/19 05:20:11;;;;;;;40.97;22.73;;;;;;;17.79;54.26;101198.13;5046868;28;20032;-65
2023/03/19 05:22:37;;;;;;;41.20;23.17;;;;;;;16.90;55.17;101201.03;5049201;28;20072;-65
2023/03/19 05:25:04;;;;;;;35.40;21.80;;;;;;;17.46;54.12;101205.38;5063254;28;20036;-65
2023/03/19 05:27:29;;;;;;;38.57;22.30;;;;;;;18.20;52.62;101212.63;5049087;28;20017;-65
2023/03/19 05:29:54;;;;;;;41.03;23.77;;;;;;;17.49;53.08;101218.53;5047515;28;20118;-65
2023/03/19 05:32:20;;;;;;;39.30;23.13;;;;;;;17.79;54.22;101221.03;5046522;28;20540;-65
2023/03/19 05:34:45;;;;;;;35.97;22.03;;;;;;;17.46;55.27;101216.84;5049089;28;20491;-65
2023/03/19 05:37:11;;;;;;;42.07;23.50;;;;;;;17.34;55.54;101227.81;5047510;28;20075;-65
2023/03/19 05:39:36;;;;;;;37.80;22.37;;;;;;;17.15;56.10;101231.94;5048550;28;20107;-66
2023/03/19 05:42:01;;;;;;;37.37;21.90;;;;;;;16.56;57.85;101238.94;5047367;28;20044;-65
2023/03/19 05:44:27;;;;;;;41.03;22.17;;;;;;;17.85;54.67;101239.34;5046870;28;20035;-65
2023/03/19 05:46:53;;;;;;;38.40;22.80;;;;;;;17.43;53.32;101248.66;5047927;28;20053;-66
2023/03/19 05:49:18;;;;;;;38.73;22.57;;;;;;;17.72;54.29;101244.19;5046578;28;20048;-66
2023/03/19 05:51:43;;;;;;;39.67;23.27;;;;;;;17.17;55.96;101251.25;5047644;28;20119;-66
2023/03/19 05:54:09;;;;;;;39.33;22.80;;;;;;;17.33;55.72;101249.84;5045956;28;20023;-65
2023/03/19 05:56:35;;;;;;;38.57;21.67;;;;;;;16.99;55.69;101258.81;5064343;28;20021;-66
2023/03/19 05:59:00;;;;;;;38.73;22.80;;;;;;;16.47;58.91;101260.28;5048406;28;20048;-65
2023/03/19 06:01:26;;;;;;;43.60;24.20;;;;;;;17.18;57.69;101263.53;5046226;28;20025;-66
2023/03/19 06:03:51;;;;;;;49.83;23.70;;;;;;;15.73;61.05;101274.47;5047159;28;20099;-66
2023/03/19 06:06:16;;;;;;;39.90;21.10;;;;;;;16.20;60.36;101265.44;5046782;28;20090;-65
2023/03/19 06:08:42;;;;;;;48.30;22.00;;;;;;;15.88;62.02;101262.72;5047412;28;20516;-65
2023/03/19 06:11:08;;;;;;;46.67;24.17;;;;;;;15.20;63.89;101268.69;5063237;28;20021;-66
2023/03/19 06:13:33;;;;;;;47.07;23.73;;;;;;;16.20;59.83;101260.16;5047538;28;20063;-66
2023/03/19 06:15:58;;;;;;;46.80;23.40;;;;;;;16.84;58.19;101256.59;5047718;28;20029;-66
2023/03/19 06:18:24;;;;;;;48.47;24.30;;;;;;;17.02;57.83;101252.56;5046873;28;20017;-66
2023/03/19 06:20:49;;;;;;;46.93;23.20;;;;;;;16.32;60.36;101259.81;5048229;28;20511;-66
2023/03/19 06:23:15;;;;;;;41.10;22.23;;;;;;;16.39;61.02;101263.13;5046045;28;20028;-65
2023/03/19 06:25:40;;;;;;;48.23;24.00;;;;;;;16.59;58.81;101270.50;5047145;28;20422;-66
2023/03/19 06:28:06;;;;;;;51.50;23.80;;;;;;;16.71;58.44;101272.78;5046309;28;20056;-65
2023/03/19 06:30:32;;;;;;;47.80;24.47;;;;;;;17.16;56.34;101275.91;5046596;28;20052;-66
2023/03/19 06:32:57;;;;;;;49.30;25.37;;;;;;;16.66;58.50;101277.31;5046821;28;20342;-66
2023/03/19 06:35:23;;;;;;;54.67;26.57;;;;;;;15.90;64.17;101291.66;5046110;28;20437;-66
2023/03/19 06:37:48;;;;;;;55.73;26.37;;;;;;;16.19;60.36;101296.19;5063424;28;20469;-66
2023/03/19 06:40:14;;;;;;;58.00;25.60;;;;;;;16.83;58.48;101290.06;5046630;28;20025;-65
2023/03/19 06:42:43;;;;;;;58.10;27.00;;;;;;;16.01;61.99;101297.53;5047486;28;20037;-65
2023/03/19 06:45:09;;;;;;;52.80;25.77;;;;;;;16.70;58.37;101297.44;5046194;28;20021;-66
2023/03/19 06:47:35;;;;;;;55.13;27.03;;;;;;;16.91;58.21;101295.13;5046798;28;20554;-66
2023/03/19 06:50:00;;;;;;;55.40;27.93;;;;;;;17.32;56.72;101295.66;5045923;28;20032;-66
2023/03/19 06:52:26;;;;;;;61.37;29.10;;;;;;;16.14;59.29;101299.84;5046429;28;20029;-66
2023/03/19 06:54:51;;;;;;;59.23;27.80;;;;;;;16.82;58.96;101303.31;5046743;28;20463;-66
2023/03/19 06:57:16;;;;;;;59.00;26.57;;;;;;;17.94;54.78;101302.53;5045721;28;20086;-65
2023/03/19 06:59:42;;;;;;;55.27;24.63;;;;;;;17.03;57.43;101307.13;5047567;28;20025;-66
2023/03/19 07:02:10;;;;;;;59.53;24.07;;;;;;;17.50;54.82;101312.72;5051115;28;20442;-65
2023/03/19 07:04:35;;;;;;;53.90;22.40;;;;;;;17.58;56.18;101317.78;5049705;28;20021;-65
2023/03/19 07:07:01;;;;;;;57.90;24.37;;;;;;;16.72;57.44;101316.75;5051479;28;20486;-65
2023/03/19 07:09:27;;;;;;;61.73;24.10;;;;;;;16.47;59.83;101323.59;5050032;28;20504;-65
2023/03/19 07:11:52;;;;;;;66.47;28.97;;;;;;;17.33;57.50;101326.47;5049247;28;20590;-65
2023/03/19 07:14:17;;;;;;;64.57;26.83;;;;;;;16.96;57.75;101325.78;5051194;28;20028;-65
2023/03/19 07:16:43;;;;;;;69.73;29.73;;;;;;;17.15;58.29;101333.16;5051638;28;20021;-65
2023/03/19 07:19:08;;;;;;;91.30;39.47;;;;;;;16.42;61.93;101331.66;5050116;28;20100;-65
2023/03/19 07:21:33;;;;;;;72.67;30.47;;;;;;;16.48;61.53;101325.34;5050165;28;20472;-65
2023/03/19 07:23:59;;;;;;;66.37;27.13;;;;;;;16.03;63.13;101335.28;5049706;28;20068;-65
2023/03/19 07:26:24;;;;;;;67.40;26.23;;;;;;;16.22;62.54;101329.53;5050536;28;20024;-65
2023/03/19 07:28:49;;;;;;;67.70;27.07;;;;;;;17.21;58.12;101332.13;5049533;28;20472;-66
2023/03/19 07:31:15;;;;;;;68.67;27.47;;;;;;;17.31;57.65;101333.59;5049539;28;20389;-65
2023/03/19 07:33:41;;;;;;;69.87;26.23;;;;;;;17.35;58.24;101331.69;5049270;28;20021;-65
2023/03/19 07:36:07;;;;;;;77.40;28.13;;;;;;;17.09;59.19;101344.78;5049422;28;20348;-65
2023/03/19 07:38:32;;;;;;;68.67;26.70;;;;;;;17.74;57.40;101340.16;5051545;28;20079;-66
2023/03/19 07:40:57;;;;;;;70.10;26.67;;;;;;;18.02;55.79;101331.34;5048902;28;20036;-66
2023/03/19 07:43:23;;;;;;;81.00;29.07;;;;;;;17.97;56.63;101349.19;5050939;28;20025;-65
2023/03/19 07:45:48;;;;;;;72.13;26.73;;;;;;;16.93;58.07;101346.13;5048708;28;20043;-66
2023/03/19 07:48:13;;;;;;;76.47;28.67;;;;;;;17.40;56.48;101354.44;5050480;28;20044;-66
2023/03/19 07:50:39;;;;;;;70.77;26.90;;;;;;;18.33;54.55;101346.22;5051138;28;20035;-66
2023/03/19 07:53:05;;;;;;;65.70;25.67;;;;;;;17.83;55.33;101361.94;5049493;28;20134;-66
2023/03/19 07:55:30;;;;;;;67.60;25.43;;;;;;;18.06;54.49;101359.44;5050937;28;20025;-66
2023/03/19 07:57:56;;;;;;;65.83;26.17;;;;;;;18.11;53.58;101360.16;5050514;28;20484;-66
2023/03/19 08:00:21;;;;;;;68.93;26.93;;;;;;;17.86;54.80;101373.28;5048233;28;20021;-66
2023/03/19 08:02:47;;;;;;;68.83;27.97;;;;;;;18.34;53.33;101361.19;5049040;28;20025;-66
2023/03/19 08:05:12;;;;;;;71.27;26.27;;;;;;;18.07;54.37;101371.75;5048868;28;20028;-66
2023/03/19 08:07:37;;;;;;;64.40;27.70;;;;;;;18.01;55.81;101369.31;5048814;28;20462;-66
2023/03/19 08:10:04;;;;;;;62.40;26.43;;;;;;;17.73;55.17;101370.16;5048503;28;20055;-66
2023/03/19 08:12:30;;;;;;;58.20;25.33;;;;;;;17.15;56.14;101377.22;5050156;28;20024;-66
2023/03/19 08:14:56;;;;;;;60.97;24.23;;;;;;;18.37;54.50;101373.41;5048369;28;20017;-66
2023/03/19 08:17:21;;;;;;;67.60;26.37;;;;;;;16.75;59.49;101385.28;5048698;28;20471;-66
2023/03/19 08:19:47;;;;;;;61.27;24.03;;;;;;;16.68;60.88;101386.38;5050183;28;20028;-66
2023/03/19 08:22:12;;;;;;;65.67;24.33;;;;;;;15.91;63.43;101396.22;5047995;28;20032;-66
2023/03/19 08:24:38;;;;;;;67.83;24.63;;;;;;;15.87;63.87;101402.47;5050361;28;20025;-66
2023/03/19 08:27:03;;;;;;;64.53;24.97;;;;;;;16.55;60.67;101400.78;5048143;28;20025;-66
2023/03/19 08:29:29;;;;;;;70.87;24.70;;;;;;;17.10;58.12;101393.19;5049680;28;20029;-66
2023/03/19 08:31:55;;;;;;;63.87;24.67;;;;;;;17.35;57.84;101393.34;5050024;28;20426;-66
2023/03/19 08:34:22;;;;;;;66.50;23.13;;;;;;;18.13;55.45;101397.13;5048475;28;20016;-66
2023/03/19 08:36:47;;;;;;;62.43;23.10;;;;;;;17.56;56.87;101407.69;5047674;28;20061;-66
2023/03/19 08:39:13;;;;;;;66.63;22.77;;;;;;;17.22;57.25;101399.91;5049729;28;20033;-66
2023/03/19 08:41:39;;;;;;;66.90;23.07;;;;;;;18.00;54.92;101406.38;5049969;28;20021;-66
2023/03/19 08:44:04;;;;;;;66.20;22.53;;;;;;;16.92;60.58;101410.41;5048309;28;20282;-66
2023/03/19 08:46:30;;;;;;;68.67;22.67;;;;;;;17.76;55.98;101412.38;5048497;28;20037;-66
2023/03/19 08:48:55;;;;;;;59.73;22.03;;;;;;;17.37;57.68;101412.66;5049219;28;20053;-66
2023/03/19 08:51:24;;;;;;;69.17;22.60;;;;;;;17.38;58.25;101414.41;5048075;28;20029;-66
2023/03/19 08:53:49;;;;;;;69.00;21.83;;;;;;;16.97;59.42;101419.06;5048127;28;20397;-66
2023/03/19 08:56:15;;;;;;;59.20;22.17;;;;;;;18.12;55.00;101416.56;5047450;28;20020;-66
2023/03/19 08:58:41;;;;;;;57.17;20.70;;;;;;;18.40;53.52;101419.19;5048413;28;20114;-66
2023/03/19 09:01:10;;;;;;;53.93;19.03;;;;;;;17.90;54.41;101421.63;5048994;28;20361;-66
2023/03/19 09:03:39;;;;;;;55.30;20.20;;;;;;;17.13;55.58;101425.66;5047661;28;20044;-66
2023/03/19 09:06:06;;;;;;;55.33;18.37;;;;;;;17.85;54.13;101423.59;5048772;28;20057;-66
2023/03/19 09:08:32;;;;;;;51.43;19.17;;;;;;;17.40;54.37;101428.41;5048287;28;20034;-66
2023/03/19 09:10:58;;;;;;;52.53;19.27;;;;;;;18.40;52.87;101426.25;5048561;28;20020;-66
2023/03/19 09:13:24;;;;;;;51.00;17.37;;;;;;;18.73;52.96;101424.22;5047936;28;20461;-66
2023/03/19 09:15:50;;;;;;;57.33;20.03;;;;;;;18.95;51.45;101434.13;5049178;28;20064;-66
2023/03/19 09:18:16;;;;;;;50.67;19.73;;;;;;;18.60;51.87;101436.16;5047015;28;20524;-66
2023/03/19 09:20:42;;;;;;;48.10;19.07;;;;;;;18.97;51.90;101438.44;5049491;28;20456;-65
2023/03/19 09:23:08;;;;;;;54.80;21.30;;;;;;;18.85;51.83;101445.91;5046081;28;20091;-65
2023/03/19 09:25:34;;;;;;;52.30;18.97;;;;;;;17.68;54.73;101448.75;5048530;28;20459;-65
2023/03/19 09:27:59;;;;;;;52.33;19.53;;;;;;;18.65;53.42;101437.72;5047435;28;20020;-65
2023/03/19 09:30:26;;;;;;;54.83;19.27;;;;;;;18.76;52.30;101445.31;5047616;28;20047;-65
2023/03/19 09:32:51;;;;;;;48.03;17.60;;;;;;;17.52;54.63;101450.13;5046814;28;20032;-65
2023/03/19 09:35:16;;;;;;;52.83;20.17;;;;;;;18.98;51.99;101439.28;5048643;28;20021;-68
2023/03/19 09:37:42;;;;;;;45.17;18.53;;;;;;;19.54;50.63;101437.28;5047767;28;20450;-65
2023/03/19 09:40:21;;;;;;;50.20;20.50;;;;;;;19.41;49.60;101443.03;5046109;28;20059;-65
2023/03/19 09:43:05;;;;;;;46.33;19.33;;;;;;;19.28;50.03;101455.88;5047428;28;20110;-66
2023/03/19 09:45:31;;;;;;;50.37;19.70;;;;;;;18.74;51.10;101463.03;5046918;28;20163;-66
2023/03/19 09:48:03;;;;;;;46.43;20.33;;;;;;;18.23;52.46;101458.53;5047247;28;20048;-65
2023/03/19 09:50:33;;;;;;;51.90;20.67;;;;;;;19.27;51.01;101471.81;5064388;28;20082;-66
2023/03/19 09:53:29;;;;;;;49.63;19.97;;;;;;;18.77;51.61;101473.53;5046428;28;20025;-65
2023/03/19 09:55:57;;;;;;;47.60;18.87;;;;;;;18.96;50.16;101480.88;5048550;28;20025;-65
2023/03/19 09:58:31;;;;;;;56.67;21.40;;;;;;;19.31;50.42;101484.03;5046879;28;20122;-66
2023/03/19 10:00:58;;;;;;;54.33;21.03;;;;;;;19.13;50.22;101486.44;5046589;28;20474;-66
2023/03/19 10:03:42;;;;;;;60.70;23.10;;;;;;;19.65;48.81;101493.41;5048176;28;20033;-65
2023/03/19 10:06:32;;;;;;;59.30;22.33;;;;;;;18.98;50.90;101502.88;5046548;28;20028;-66
2023/03/19 10:09:23;;;;;;;60.90;23.03;;;;;;;19.39;50.05;101497.88;5063710;28;20035;-66
2023/03/19 10:12:05;;;;;;;54.87;21.73;;;;;;;18.82;51.63;101503.38;5047051;28;20075;-66
2023/03/19 10:15:01;;;;;;;56.77;23.13;;;;;;;19.81;49.14;101494.59;5046676;28;20354;-66
2023/03/19 10:17:36;;;;;;;61.13;23.93;;;;;;;19.31;49.98;101499.94;5047991;28;20029;-66
2023/03/19 10:20:15;;;;;;;60.13;24.80;;;;;;;19.32;49.09;101501.69;5047112;28;20445;-66
2023/03/19 10:22:46;;;;;;;56.27;22.60;;;;;;;19.07;50.53;101494.59;5046669;28;20024;-65
2023/03/19 10:25:20;;;;;;;62.87;23.47;;;;;;;19.59;49.67;101494.50;5047946;28;20105;-66
2023/03/19 10:27:53;;;;;;;58.63;23.17;;;;;;;20.00;47.85;101505.34;5062844;28;20037;-66
2023/03/19 10:30:19;;;;;;;62.20;24.77;;;;;;;19.18;49.81;101509.25;5046703;28;20021;-66
2023/03/19 10:32:52;;;;;;;59.63;23.40;;;;;;;20.45;46.77;101505.34;5047148;28;20024;-66
2023/03/19 10:35:28;;;;;;;57.60;22.75;;;;;;;20.29;47.15;101511.28;5065557;28;20079;-65
2023/03/19 10:37:54;;;;;;;59.90;23.43;;;;;;;19.76;47.25;101511.56;5052080;28;20100;-65
2023/03/19 10:40:27;;;;;;;52.23;22.73;;;;;;;20.16;47.60;101515.34;5050718;28;20116;-65
2023/03/19 10:43:24;;;;;;;56.42;21.38;;;;;;;19.96;47.88;101518.78;5050142;28;20024;-66
2023/03/19 10:45:49;;;;;;;49.77;21.30;;;;;;;19.60;48.66;101527.19;5051817;28;20104;-65
2023/03/19 10:48:17;;;;;;;55.90;20.07;;;;;;;20.15;47.48;101530.44;5051722;28;20136;-65
2023/03/19 10:50:56;;;;;;;57.20;21.97;;;;;;;19.52;48.68;101531.91;5066763;28;20104;-65
2023/03/19 10:53:31;;;;;;;55.50;22.20;;;;;;;19.26;50.21;101533.69;5050339;28;20044;-65
2023/03/19 10:56:21;;;;;;;58.00;23.77;;;;;;;20.09;48.36;101525.34;5049614;28;20021;-65
2023/03/19 10:59:19;;;;;;;51.70;21.25;;;;;;;18.53;51.96;101535.22;5045514;28;20412;-65
2023/03/19 11:01:45;;;;;;;60.10;23.43;;;;;;;18.50;51.85;101532.69;5052060;28;20565;-65
2023/03/19 11:04:21;;;;;;;57.70;25.53;;;;;;;18.64;52.21;101541.03;5049182;28;20033;-65
2023/03/19 11:06:52;;;;;;;58.27;24.93;;;;;;;19.53;49.70;101541.59;5050272;28;20024;-65
2023/03/19 11:09:33;;;;;;;51.40;23.43;;;;;;;18.56;51.67;101537.78;5050109;28;20050;-65
2023/03/19 11:12:21;;;;;;;57.57;25.10;;;;;;;19.49;50.35;101531.09;5049500;28;20485;-65